sensor_id;sensor_type;location;lat;lon;timestamp;P1;durP1;ratioP1;P2;durP2;ratioP2
23159;SDS011;11748;50.844;4.396;2023-05-29T00:00:15;15.60;;;6.53;;
23159;SDS011;11748;50.844;4.396;2023-05-29T00:02:44;13.40;;;6.60;;
23159;SDS011;11748;50.844;4.396;2023-05-29T00:05:10;19.13;;;7.03;;
23159;SDS011;11748;50.844;4.396;2023-05-29T00:07:37;15.95;;;7.00;;
23159;SDS011;11748;50.844;4.396;2023-05-29T00:10:03;15.20;;;7.50;;
23159;SDS011;11748;50.844;4.396;2023-05-29T00:12:30;15.35;;;7.13;;
23159;SDS011;11748;50.844;4.396;2023-05-29T00:14:56;15.82;;;7.18;;
23159;SDS011;11748;50.844;4.396;2023-05-29T00:17:22;13.43;;;6.75;;
23159;SDS011;11748;50.844;4.396;2023-05-29T00:19:48;12.65;;;7.47;;
23159;SDS011;11748;50.844;4.396;2023-05-29T00:22:14;13.70;;;7.72;;
23159;SDS011;11748;50.844;4.396;2023-05-29T00:24:40;13.70;;;7.32;;
23159;SDS011;11748;50.844;4.396;2023-05-29T00:27:05;13.15;;;7.13;;
23159;SDS011;11748;50.844;4.396;2023-05-29T00:29:31;12.43;;;6.35;;
23159;SDS011;11748;50.844;4.396;2023-05-29T00:31:57;13.68;;;7.03;;
23159;SDS011;11748;50.844;4.396;2023-05-29T00:34:23;12.07;;;6.93;;
23159;SDS011;11748;50.844;4.396;2023-05-29T00:36:49;14.82;;;8.32;;
23159;SDS011;11748;50.844;4.396;2023-05-29T00:39:14;16.15;;;7.50;;
23159;SDS011;11748;50.844;4.396;2023-05-29T00:41:40;14.15;;;7.57;;
23159;SDS011;11748;50.844;4.396;2023-05-29T00:44:06;11.90;;;7.25;;
23159;SDS011;11748;50.844;4.396;2023-05-29T00:46:31;17.08;;;7.88;;
23159;SDS011;11748;50.844;4.396;2023-05-29T00:48:58;15.55;;;7.72;;
23159;SDS011;11748;50.844;4.396;2023-05-29T00:51:25;12.77;;;7.30;;
23159;SDS011;11748;50.844;4.396;2023-05-29T00:53:52;12.60;;;7.18;;
23159;SDS011;11748;50.844;4.396;2023-05-29T00:56:18;15.40;;;7.35;;
23159;SDS011;11748;50.844;4.396;2023-05-29T00:58:45;14.13;;;7.82;;
23159;SDS011;11748;50.844;4.396;2023-05-29T01:01:17;16.17;;;7.88;;
23159;SDS011;11748;50.844;4.396;2023-05-29T01:03:43;14.88;;;8.60;;
23159;SDS011;11748;50.844;4.396;2023-05-29T01:06:10;14.65;;;7.00;;
23159;SDS011;11748;50.844;4.396;2023-05-29T01:08:35;15.65;;;7.32;;
23159;SDS011;11748;50.844;4.396;2023-05-29T01:11:07;15.13;;;7.68;;
23159;SDS011;11748;50.844;4.396;2023-05-29T01:13:41;14.23;;;7.53;;
23159;SDS011;11748;50.844;4.396;2023-05-29T01:16:21;11.40;;;7.50;;
23159;SDS011;11748;50.844;4.396;2023-05-29T01:22:04;13.48;;;7.55;;
23159;SDS011;11748;50.844;4.396;2023-05-29T01:24:52;13.80;;;7.15;;
23159;SDS011;11748;50.844;4.396;2023-05-29T01:27:37;13.98;;;7.32;;
23159;SDS011;11748;50.844;4.396;2023-05-29T01:30:04;14.23;;;7.75;;
23159;SDS011;11748;50.844;4.396;2023-05-29T01:32:32;17.85;;;7.53;;
23159;SDS011;11748;50.844;4.396;2023-05-29T01:34:59;13.32;;;7.35;;
23159;SDS011;11748;50.844;4.396;2023-05-29T01:37:24;12.80;;;7.50;;
23159;SDS011;11748;50.844;4.396;2023-05-29T01:39:52;15.77;;;7.35;;
23159;SDS011;11748;50.844;4.396;2023-05-29T01:42:18;12.52;;;7.05;;
23159;SDS011;11748;50.844;4.396;2023-05-29T01:44:43;12.40;;;7.65;;
23159;SDS011;11748;50.844;4.396;2023-05-29T01:47:10;12.05;;;7.50;;
23159;SDS011;11748;50.844;4.396;2023-05-29T01:49:37;13.93;;;7.43;;
23159;SDS011;11748;50.844;4.396;2023-05-29T01:52:04;14.15;;;7.28;;
23159;SDS011;11748;50.844;4.396;2023-05-29T01:54:30;13.50;;;7.18;;
23159;SDS011;11748;50.844;4.396;2023-05-29T01:56:56;17.13;;;7.70;;
23159;SDS011;11748;50.844;4.396;2023-05-29T01:59:21;15.60;;;7.60;;
23159;SDS011;11748;50.844;4.396;2023-05-29T02:01:47;15.70;;;7.93;;
23159;SDS011;11748;50.844;4.396;2023-05-29T02:04:13;13.43;;;6.97;;
23159;SDS011;11748;50.844;4.396;2023-05-29T02:06:39;14.60;;;7.30;;
23159;SDS011;11748;50.844;4.396;2023-05-29T02:09:05;12.00;;;7.22;;
23159;SDS011;11748;50.844;4.396;2023-05-29T02:11:31;13.55;;;7.95;;
23159;SDS011;11748;50.844;4.396;2023-05-29T02:13:57;15.52;;;7.57;;
23159;SDS011;11748;50.844;4.396;2023-05-29T02:16:22;15.10;;;7.50;;
23159;SDS011;11748;50.844;4.396;2023-05-29T02:18:48;14.07;;;7.03;;
23159;SDS011;11748;50.844;4.396;2023-05-29T02:21:14;11.77;;;7.30;;
23159;SDS011;11748;50.844;4.396;2023-05-29T02:23:39;16.10;;;8.15;;
23159;SDS011;11748;50.844;4.396;2023-05-29T02:26:05;13.70;;;8.60;;
23159;SDS011;11748;50.844;4.396;2023-05-29T02:28:31;12.77;;;7.05;;
23159;SDS011;11748;50.844;4.396;2023-05-29T02:30:56;15.70;;;7.05;;
23159;SDS011;11748;50.844;4.396;2023-05-29T02:33:22;16.25;;;6.82;;
23159;SDS011;11748;50.844;4.396;2023-05-29T02:35:48;13.70;;;5.90;;
23159;SDS011;11748;50.844;4.396;2023-05-29T02:38:13;12.90;;;5.90;;
23159;SDS011;11748;50.844;4.396;2023-05-29T02:40:39;13.48;;;5.82;;
23159;SDS011;11748;50.844;4.396;2023-05-29T02:43:05;14.02;;;5.90;;
23159;SDS011;11748;50.844;4.396;2023-05-29T02:45:31;14.63;;;5.95;;
23159;SDS011;11748;50.844;4.396;2023-05-29T02:47:57;12.23;;;5.55;;
23159;SDS011;11748;50.844;4.396;2023-05-29T02:50:22;13.00;;;5.90;;
23159;SDS011;11748;50.844;4.396;2023-05-29T02:52:48;10.10;;;5.05;;
23159;SDS011;11748;50.844;4.396;2023-05-29T02:55:15;12.02;;;5.07;;
23159;SDS011;11748;50.844;4.396;2023-05-29T02:57:41;17.10;;;5.13;;
23159;SDS011;11748;50.844;4.396;2023-05-29T03:00:07;11.88;;;5.45;;
23159;SDS011;11748;50.844;4.396;2023-05-29T03:02:33;10.65;;;4.85;;
23159;SDS011;11748;50.844;4.396;2023-05-29T03:05:00;12.05;;;4.72;;
23159;SDS011;11748;50.844;4.396;2023-05-29T03:07:26;14.48;;;5.13;;
23159;SDS011;11748;50.844;4.396;2023-05-29T03:09:51;12.07;;;5.15;;
23159;SDS011;11748;50.844;4.396;2023-05-29T03:12:18;10.80;;;4.38;;
23159;SDS011;11748;50.844;4.396;2023-05-29T03:14:44;13.65;;;4.60;;
23159;SDS011;11748;50.844;4.396;2023-05-29T03:17:10;14.23;;;5.30;;
23159;SDS011;11748;50.844;4.396;2023-05-29T03:19:35;13.75;;;4.97;;
23159;SDS011;11748;50.844;4.396;2023-05-29T03:22:02;13.35;;;4.72;;
23159;SDS011;11748;50.844;4.396;2023-05-29T03:24:28;11.90;;;4.93;;
23159;SDS011;11748;50.844;4.396;2023-05-29T03:26:54;11.10;;;4.25;;
23159;SDS011;11748;50.844;4.396;2023-05-29T03:29:21;12.90;;;4.78;;
23159;SDS011;11748;50.844;4.396;2023-05-29T03:31:46;14.68;;;4.75;;
23159;SDS011;11748;50.844;4.396;2023-05-29T03:34:12;12.73;;;4.22;;
23159;SDS011;11748;50.844;4.396;2023-05-29T03:36:38;11.15;;;3.90;;
23159;SDS011;11748;50.844;4.396;2023-05-29T03:39:04;11.07;;;4.07;;
23159;SDS011;11748;50.844;4.396;2023-05-29T03:41:30;12.23;;;3.60;;
23159;SDS011;11748;50.844;4.396;2023-05-29T03:43:55;12.63;;;4.20;;
23159;SDS011;11748;50.844;4.396;2023-05-29T03:46:21;11.65;;;3.72;;
23159;SDS011;11748;50.844;4.396;2023-05-29T03:48:47;12.65;;;4.10;;
23159;SDS011;11748;50.844;4.396;2023-05-29T03:51:12;10.98;;;3.63;;
23159;SDS011;11748;50.844;4.396;2023-05-29T03:53:38;12.05;;;3.17;;
23159;SDS011;11748;50.844;4.396;2023-05-29T03:56:03;10.98;;;3.60;;
23159;SDS011;11748;50.844;4.396;2023-05-29T03:58:30;13.23;;;3.47;;
23159;SDS011;11748;50.844;4.396;2023-05-29T04:00:56;11.82;;;3.40;;
23159;SDS011;11748;50.844;4.396;2023-05-29T04:03:21;10.25;;;2.83;;
23159;SDS011;11748;50.844;4.396;2023-05-29T04:05:48;11.07;;;3.40;;
23159;SDS011;11748;50.844;4.396;2023-05-29T04:08:13;10.00;;;3.40;;
23159;SDS011;11748;50.844;4.396;2023-05-29T04:10:39;13.07;;;3.25;;
23159;SDS011;11748;50.844;4.396;2023-05-29T04:13:05;12.95;;;3.25;;
23159;SDS011;11748;50.844;4.396;2023-05-29T04:15:33;11.23;;;3.45;;
23159;SDS011;11748;50.844;4.396;2023-05-29T04:17:59;16.90;;;3.40;;
23159;SDS011;11748;50.844;4.396;2023-05-29T04:20:25;11.15;;;3.20;;
23159;SDS011;11748;50.844;4.396;2023-05-29T04:22:51;9.63;;;2.75;;
23159;SDS011;11748;50.844;4.396;2023-05-29T04:25:17;11.10;;;3.25;;
23159;SDS011;11748;50.844;4.396;2023-05-29T04:27:43;10.45;;;3.28;;
23159;SDS011;11748;50.844;4.396;2023-05-29T04:30:13;10.88;;;3.28;;
23159;SDS011;11748;50.844;4.396;2023-05-29T04:32:40;17.25;;;3.72;;
23159;SDS011;11748;50.844;4.396;2023-05-29T04:35:06;9.25;;;2.55;;
23159;SDS011;11748;50.844;4.396;2023-05-29T04:37:32;10.18;;;2.83;;
23159;SDS011;11748;50.844;4.396;2023-05-29T04:40:04;12.80;;;3.42;;
23159;SDS011;11748;50.844;4.396;2023-05-29T04:42:34;14.60;;;2.92;;
23159;SDS011;11748;50.844;4.396;2023-05-29T04:45:01;13.18;;;3.15;;
23159;SDS011;11748;50.844;4.396;2023-05-29T04:47:27;13.35;;;2.72;;
23159;SDS011;11748;50.844;4.396;2023-05-29T04:49:53;17.73;;;4.10;;
23159;SDS011;11748;50.844;4.396;2023-05-29T04:52:19;13.25;;;3.10;;
23159;SDS011;11748;50.844;4.396;2023-05-29T04:54:46;12.95;;;3.00;;
23159;SDS011;11748;50.844;4.396;2023-05-29T04:57:11;13.95;;;3.03;;
23159;SDS011;11748;50.844;4.396;2023-05-29T04:59:37;9.20;;;2.97;;
23159;SDS011;11748;50.844;4.396;2023-05-29T05:02:03;11.00;;;2.95;;
23159;SDS011;11748;50.844;4.396;2023-05-29T05:04:29;15.57;;;3.42;;
23159;SDS011;11748;50.844;4.396;2023-05-29T05:06:55;14.23;;;2.75;;
23159;SDS011;11748;50.844;4.396;2023-05-29T05:09:20;11.70;;;2.80;;
23159;SDS011;11748;50.844;4.396;2023-05-29T05:11:46;15.65;;;3.15;;
23159;SDS011;11748;50.844;4.396;2023-05-29T05:14:12;10.32;;;2.42;;
23159;SDS011;11748;50.844;4.396;2023-05-29T05:16:37;9.05;;;2.88;;
23159;SDS011;11748;50.844;4.396;2023-05-29T05:19:03;12.35;;;2.90;;
23159;SDS011;11748;50.844;4.396;2023-05-29T05:21:29;13.48;;;2.58;;
23159;SDS011;11748;50.844;4.396;2023-05-29T05:23:58;15.45;;;3.40;;
23159;SDS011;11748;50.844;4.396;2023-05-29T05:26:24;16.33;;;3.47;;
23159;SDS011;11748;50.844;4.396;2023-05-29T05:28:53;10.30;;;2.80;;
23159;SDS011;11748;50.844;4.396;2023-05-29T05:31:19;12.73;;;3.38;;
23159;SDS011;11748;50.844;4.396;2023-05-29T05:33:44;16.02;;;3.50;;
23159;SDS011;11748;50.844;4.396;2023-05-29T05:36:10;16.52;;;3.45;;
23159;SDS011;11748;50.844;4.396;2023-05-29T05:38:36;11.75;;;2.95;;
23159;SDS011;11748;50.844;4.396;2023-05-29T05:41:01;14.60;;;3.22;;
23159;SDS011;11748;50.844;4.396;2023-05-29T05:43:27;14.40;;;3.13;;
23159;SDS011;11748;50.844;4.396;2023-05-29T05:45:54;14.48;;;2.67;;
23159;SDS011;11748;50.844;4.396;2023-05-29T05:48:20;14.23;;;3.65;;
23159;SDS011;11748;50.844;4.396;2023-05-29T05:50:45;12.55;;;2.97;;
23159;SDS011;11748;50.844;4.396;2023-05-29T05:53:11;12.60;;;2.83;;
23159;SDS011;11748;50.844;4.396;2023-05-29T05:55:36;11.10;;;2.70;;
23159;SDS011;11748;50.844;4.396;2023-05-29T05:58:02;12.02;;;3.05;;
23159;SDS011;11748;50.844;4.396;2023-05-29T06:00:27;12.45;;;3.15;;
23159;SDS011;11748;50.844;4.396;2023-05-29T06:02:53;8.68;;;2.75;;
23159;SDS011;11748;50.844;4.396;2023-05-29T06:05:18;13.15;;;3.28;;
23159;SDS011;11748;50.844;4.396;2023-05-29T06:07:44;13.23;;;3.25;;
23159;SDS011;11748;50.844;4.396;2023-05-29T06:10:10;14.73;;;3.20;;
23159;SDS011;11748;50.844;4.396;2023-05-29T06:12:35;13.95;;;3.30;;
23159;SDS011;11748;50.844;4.396;2023-05-29T06:15:01;11.52;;;2.80;;
23159;SDS011;11748;50.844;4.396;2023-05-29T06:17:29;10.88;;;3.17;;
23159;SDS011;11748;50.844;4.396;2023-05-29T06:19:54;12.95;;;2.80;;
23159;SDS011;11748;50.844;4.396;2023-05-29T06:22:20;14.68;;;3.67;;
23159;SDS011;11748;50.844;4.396;2023-05-29T06:24:46;13.40;;;3.05;;
23159;SDS011;11748;50.844;4.396;2023-05-29T06:27:11;15.73;;;3.00;;
23159;SDS011;11748;50.844;4.396;2023-05-29T06:29:37;11.80;;;2.78;;
23159;SDS011;11748;50.844;4.396;2023-05-29T06:32:02;15.35;;;3.00;;
23159;SDS011;11748;50.844;4.396;2023-05-29T06:34:28;12.07;;;2.75;;
23159;SDS011;11748;50.844;4.396;2023-05-29T06:36:54;20.80;;;3.70;;
23159;SDS011;11748;50.844;4.396;2023-05-29T06:39:19;9.32;;;2.92;;
23159;SDS011;11748;50.844;4.396;2023-05-29T06:41:45;12.40;;;3.15;;
23159;SDS011;11748;50.844;4.396;2023-05-29T06:44:11;15.27;;;3.05;;
23159;SDS011;11748;50.844;4.396;2023-05-29T06:46:37;15.45;;;3.40;;
23159;SDS011;11748;50.844;4.396;2023-05-29T06:49:02;15.57;;;3.50;;
23159;SDS011;11748;50.844;4.396;2023-05-29T06:51:28;11.73;;;2.88;;
23159;SDS011;11748;50.844;4.396;2023-05-29T06:53:54;12.32;;;2.65;;
23159;SDS011;11748;50.844;4.396;2023-05-29T06:56:20;16.23;;;3.58;;
23159;SDS011;11748;50.844;4.396;2023-05-29T06:58:49;11.73;;;3.05;;
23159;SDS011;11748;50.844;4.396;2023-05-29T07:01:14;17.10;;;2.97;;
23159;SDS011;11748;50.844;4.396;2023-05-29T07:03:41;15.73;;;3.22;;
23159;SDS011;11748;50.844;4.396;2023-05-29T07:06:08;13.23;;;3.70;;
23159;SDS011;11748;50.844;4.396;2023-05-29T07:08:35;15.57;;;3.60;;
23159;SDS011;11748;50.844;4.396;2023-05-29T07:11:01;17.08;;;3.55;;
23159;SDS011;11748;50.844;4.396;2023-05-29T07:13:27;13.27;;;3.20;;
23159;SDS011;11748;50.844;4.396;2023-05-29T07:15:52;15.02;;;3.15;;
23159;SDS011;11748;50.844;4.396;2023-05-29T07:18:18;13.68;;;3.20;;
23159;SDS011;11748;50.844;4.396;2023-05-29T07:20:44;14.02;;;3.28;;
23159;SDS011;11748;50.844;4.396;2023-05-29T07:23:10;13.00;;;2.67;;
23159;SDS011;11748;50.844;4.396;2023-05-29T07:25:36;14.40;;;3.30;;
23159;SDS011;11748;50.844;4.396;2023-05-29T07:28:02;10.68;;;3.20;;
23159;SDS011;11748;50.844;4.396;2023-05-29T07:30:27;14.07;;;3.30;;
23159;SDS011;11748;50.844;4.396;2023-05-29T07:32:53;11.05;;;3.35;;
23159;SDS011;11748;50.844;4.396;2023-05-29T07:35:19;12.85;;;2.55;;
23159;SDS011;11748;50.844;4.396;2023-05-29T07:37:44;13.77;;;3.22;;
23159;SDS011;11748;50.844;4.396;2023-05-29T07:40:10;14.50;;;3.15;;
23159;SDS011;11748;50.844;4.396;2023-05-29T07:42:36;10.63;;;2.75;;
23159;SDS011;11748;50.844;4.396;2023-05-29T07:45:01;12.45;;;3.30;;
23159;SDS011;11748;50.844;4.396;2023-05-29T07:47:27;9.90;;;2.90;;
23159;SDS011;11748;50.844;4.396;2023-05-29T07:49:53;12.25;;;3.22;;
23159;SDS011;11748;50.844;4.396;2023-05-29T07:52:18;15.70;;;3.15;;
23159;SDS011;11748;50.844;4.396;2023-05-29T07:54:44;11.35;;;2.90;;
23159;SDS011;11748;50.844;4.396;2023-05-29T07:57:10;7.68;;;2.58;;
23159;SDS011;11748;50.844;4.396;2023-05-29T07:59:36;10.48;;;2.70;;
23159;SDS011;11748;50.844;4.396;2023-05-29T08:02:02;10.85;;;3.22;;
23159;SDS011;11748;50.844;4.396;2023-05-29T08:04:29;10.90;;;2.70;;
23159;SDS011;11748;50.844;4.396;2023-05-29T08:06:55;13.38;;;3.17;;
23159;SDS011;11748;50.844;4.396;2023-05-29T08:09:21;15.27;;;2.90;;
23159;SDS011;11748;50.844;4.396;2023-05-29T08:11:47;12.15;;;2.97;;
23159;SDS011;11748;50.844;4.396;2023-05-29T08:14:15;12.98;;;3.60;;
23159;SDS011;11748;50.844;4.396;2023-05-29T08:16:41;12.45;;;2.88;;
23159;SDS011;11748;50.844;4.396;2023-05-29T08:19:07;11.15;;;2.63;;
23159;SDS011;11748;50.844;4.396;2023-05-29T08:21:33;10.18;;;2.55;;
23159;SDS011;11748;50.844;4.396;2023-05-29T08:23:59;11.77;;;2.47;;
23159;SDS011;11748;50.844;4.396;2023-05-29T08:26:30;11.85;;;2.53;;
23159;SDS011;11748;50.844;4.396;2023-05-29T08:28:55;11.57;;;2.90;;
23159;SDS011;11748;50.844;4.396;2023-05-29T08:31:22;9.73;;;2.60;;
23159;SDS011;11748;50.844;4.396;2023-05-29T08:33:50;10.38;;;2.75;;
23159;SDS011;11748;50.844;4.396;2023-05-29T08:36:16;12.10;;;2.33;;
23159;SDS011;11748;50.844;4.396;2023-05-29T08:38:42;7.72;;;2.55;;
23159;SDS011;11748;50.844;4.396;2023-05-29T08:41:08;10.52;;;2.50;;
23159;SDS011;11748;50.844;4.396;2023-05-29T08:43:44;14.52;;;3.10;;
23159;SDS011;11748;50.844;4.396;2023-05-29T08:46:12;8.88;;;2.50;;
23159;SDS011;11748;50.844;4.396;2023-05-29T08:48:40;16.38;;;2.83;;
23159;SDS011;11748;50.844;4.396;2023-05-29T08:51:10;15.80;;;3.08;;
23159;SDS011;11748;50.844;4.396;2023-05-29T08:53:36;10.35;;;3.13;;
23159;SDS011;11748;50.844;4.396;2023-05-29T08:56:02;13.13;;;3.00;;
23159;SDS011;11748;50.844;4.396;2023-05-29T08:58:28;9.23;;;2.50;;
23159;SDS011;11748;50.844;4.396;2023-05-29T09:00:54;15.52;;;2.75;;
23159;SDS011;11748;50.844;4.396;2023-05-29T09:03:20;15.35;;;3.00;;
23159;SDS011;11748;50.844;4.396;2023-05-29T09:05:47;8.40;;;2.60;;
23159;SDS011;11748;50.844;4.396;2023-05-29T09:08:14;11.98;;;2.85;;
23159;SDS011;11748;50.844;4.396;2023-05-29T09:10:43;15.65;;;4.30;;
23159;SDS011;11748;50.844;4.396;2023-05-29T09:13:10;16.35;;;2.78;;
23159;SDS011;11748;50.844;4.396;2023-05-29T09:15:36;12.43;;;2.75;;
23159;SDS011;11748;50.844;4.396;2023-05-29T09:18:05;14.25;;;3.63;;
23159;SDS011;11748;50.844;4.396;2023-05-29T09:20:31;13.05;;;3.22;;
23159;SDS011;11748;50.844;4.396;2023-05-29T09:22:58;9.18;;;2.58;;
23159;SDS011;11748;50.844;4.396;2023-05-29T09:25:29;14.55;;;3.45;;
23159;SDS011;11748;50.844;4.396;2023-05-29T09:27:58;8.80;;;2.42;;
23159;SDS011;11748;50.844;4.396;2023-05-29T09:33:06;13.48;;;2.72;;
23159;SDS011;11748;50.844;4.396;2023-05-29T09:35:37;9.45;;;2.92;;
23159;SDS011;11748;50.844;4.396;2023-05-29T09:38:04;12.82;;;3.08;;
23159;SDS011;11748;50.844;4.396;2023-05-29T09:40:40;15.60;;;3.33;;
23159;SDS011;11748;50.844;4.396;2023-05-29T09:43:13;14.73;;;3.00;;
23159;SDS011;11748;50.844;4.396;2023-05-29T09:45:42;12.65;;;2.60;;
23159;SDS011;11748;50.844;4.396;2023-05-29T09:48:22;9.52;;;2.83;;
23159;SDS011;11748;50.844;4.396;2023-05-29T09:50:48;18.25;;;3.47;;
23159;SDS011;11748;50.844;4.396;2023-05-29T09:53:18;11.55;;;2.90;;
23159;SDS011;11748;50.844;4.396;2023-05-29T09:55:51;13.70;;;3.10;;
23159;SDS011;11748;50.844;4.396;2023-05-29T09:58:17;10.52;;;3.00;;
23159;SDS011;11748;50.844;4.396;2023-05-29T10:00:43;11.95;;;3.08;;
23159;SDS011;11748;50.844;4.396;2023-05-29T10:03:10;14.02;;;3.10;;
23159;SDS011;11748;50.844;4.396;2023-05-29T10:05:40;11.35;;;2.53;;
23159;SDS011;11748;50.844;4.396;2023-05-29T10:08:13;15.13;;;3.25;;
23159;SDS011;11748;50.844;4.396;2023-05-29T10:10:46;13.82;;;2.92;;
23159;SDS011;11748;50.844;4.396;2023-05-29T10:13:17;13.43;;;2.55;;
23159;SDS011;11748;50.844;4.396;2023-05-29T10:15:44;11.77;;;2.83;;
23159;SDS011;11748;50.844;4.396;2023-05-29T10:20:51;10.07;;;2.72;;
23159;SDS011;11748;50.844;4.396;2023-05-29T10:23:21;14.00;;;2.95;;
23159;SDS011;11748;50.844;4.396;2023-05-29T10:25:49;9.52;;;2.38;;
23159;SDS011;11748;50.844;4.396;2023-05-29T10:28:24;12.55;;;2.63;;
23159;SDS011;11748;50.844;4.396;2023-05-29T10:31:24;12.60;;;2.58;;
23159;SDS011;11748;50.844;4.396;2023-05-29T10:36:20;11.73;;;2.70;;
23159;SDS011;11748;50.844;4.396;2023-05-29T10:38:49;10.95;;;3.13;;
23159;SDS011;11748;50.844;4.396;2023-05-29T10:44:03;11.07;;;2.60;;
23159;SDS011;11748;50.844;4.396;2023-05-29T10:49:20;9.35;;;2.42;;
23159;SDS011;11748;50.844;4.396;2023-05-29T10:51:46;16.35;;;3.20;;
23159;SDS011;11748;50.844;4.396;2023-05-29T10:54:16;13.23;;;4.03;;
23159;SDS011;11748;50.844;4.396;2023-05-29T10:56:44;13.07;;;3.42;;
23159;SDS011;11748;50.844;4.396;2023-05-29T10:59:16;12.75;;;4.07;;
23159;SDS011;11748;50.844;4.396;2023-05-29T11:01:43;13.63;;;2.95;;
23159;SDS011;11748;50.844;4.396;2023-05-29T11:06:47;11.45;;;2.65;;
23159;SDS011;11748;50.844;4.396;2023-05-29T11:14:59;10.70;;;2.53;;
23159;SDS011;11748;50.844;4.396;2023-05-29T11:20:03;9.45;;;2.88;;
23159;SDS011;11748;50.844;4.396;2023-05-29T11:25:25;7.93;;;2.65;;
23159;SDS011;11748;50.844;4.396;2023-05-29T11:27:51;12.35;;;3.10;;
23159;SDS011;11748;50.844;4.396;2023-05-29T11:30:20;10.80;;;2.78;;
23159;SDS011;11748;50.844;4.396;2023-05-29T11:32:47;7.90;;;2.42;;
23159;SDS011;11748;50.844;4.396;2023-05-29T11:35:14;9.40;;;2.97;;
23159;SDS011;11748;50.844;4.396;2023-05-29T11:37:42;9.57;;;2.72;;
23159;SDS011;11748;50.844;4.396;2023-05-29T11:40:10;12.05;;;3.08;;
23159;SDS011;11748;50.844;4.396;2023-05-29T11:42:41;10.35;;;2.60;;
23159;SDS011;11748;50.844;4.396;2023-05-29T11:48:10;12.40;;;3.00;;
23159;SDS011;11748;50.844;4.396;2023-05-29T11:50:30;8.40;;;2.30;;
23159;SDS011;11748;50.844;4.396;2023-05-29T11:52:57;8.20;;;1.98;;
23159;SDS011;11748;50.844;4.396;2023-05-29T11:55:24;10.30;;;2.28;;
23159;SDS011;11748;50.844;4.396;2023-05-29T11:57:51;7.40;;;2.58;;
23159;SDS011;11748;50.844;4.396;2023-05-29T12:00:25;8.02;;;2.42;;
23159;SDS011;11748;50.844;4.396;2023-05-29T12:02:51;9.95;;;2.60;;
23159;SDS011;11748;50.844;4.396;2023-05-29T12:05:17;8.75;;;2.67;;
23159;SDS011;11748;50.844;4.396;2023-05-29T12:07:50;9.82;;;2.50;;
23159;SDS011;11748;50.844;4.396;2023-05-29T12:10:19;10.63;;;2.20;;
23159;SDS011;11748;50.844;4.396;2023-05-29T12:12:53;9.88;;;3.28;;
23159;SDS011;11748;50.844;4.396;2023-05-29T12:15:20;10.07;;;2.60;;
23159;SDS011;11748;50.844;4.396;2023-05-29T12:17:47;7.18;;;2.28;;
23159;SDS011;11748;50.844;4.396;2023-05-29T12:20:15;7.60;;;2.00;;
23159;SDS011;11748;50.844;4.396;2023-05-29T12:22:42;8.23;;;2.30;;
23159;SDS011;11748;50.844;4.396;2023-05-29T12:25:12;8.18;;;2.60;;
23159;SDS011;11748;50.844;4.396;2023-05-29T12:27:45;8.38;;;2.15;;
23159;SDS011;11748;50.844;4.396;2023-05-29T12:32:44;7.60;;;2.65;;
23159;SDS011;11748;50.844;4.396;2023-05-29T12:35:19;11.52;;;2.58;;
23159;SDS011;11748;50.844;4.396;2023-05-29T12:37:53;7.78;;;2.33;;
23159;SDS011;11748;50.844;4.396;2023-05-29T12:42:53;7.47;;;2.63;;
23159;SDS011;11748;50.844;4.396;2023-05-29T12:45:21;8.70;;;2.22;;
23159;SDS011;11748;50.844;4.396;2023-05-29T12:47:51;8.30;;;2.83;;
23159;SDS011;11748;50.844;4.396;2023-05-29T12:50:31;8.93;;;2.30;;
23159;SDS011;11748;50.844;4.396;2023-05-29T12:53:04;8.00;;;2.30;;
23159;SDS011;11748;50.844;4.396;2023-05-29T12:55:38;8.20;;;2.38;;
23159;SDS011;11748;50.844;4.396;2023-05-29T12:58:08;7.90;;;2.10;;
23159;SDS011;11748;50.844;4.396;2023-05-29T13:00:35;8.43;;;2.40;;
23159;SDS011;11748;50.844;4.396;2023-05-29T13:03:05;9.23;;;2.42;;
23159;SDS011;11748;50.844;4.396;2023-05-29T13:05:32;10.75;;;2.75;;
23159;SDS011;11748;50.844;4.396;2023-05-29T13:07:58;11.88;;;2.70;;
23159;SDS011;11748;50.844;4.396;2023-05-29T13:10:25;6.53;;;2.22;;
23159;SDS011;11748;50.844;4.396;2023-05-29T13:12:52;7.50;;;1.90;;
23159;SDS011;11748;50.844;4.396;2023-05-29T13:15:19;12.15;;;2.65;;
23159;SDS011;11748;50.844;4.396;2023-05-29T13:17:46;10.52;;;2.83;;
23159;SDS011;11748;50.844;4.396;2023-05-29T13:20:12;7.65;;;2.63;;
23159;SDS011;11748;50.844;4.396;2023-05-29T13:22:39;9.13;;;2.45;;
23159;SDS011;11748;50.844;4.396;2023-05-29T13:25:05;12.07;;;2.22;;
23159;SDS011;11748;50.844;4.396;2023-05-29T13:27:34;10.75;;;2.33;;
23159;SDS011;11748;50.844;4.396;2023-05-29T13:30:01;9.00;;;2.45;;
23159;SDS011;11748;50.844;4.396;2023-05-29T13:32:28;6.97;;;2.17;;
23159;SDS011;11748;50.844;4.396;2023-05-29T13:34:54;9.90;;;3.20;;
23159;SDS011;11748;50.844;4.396;2023-05-29T13:37:19;10.32;;;2.60;;
23159;SDS011;11748;50.844;4.396;2023-05-29T13:39:45;8.55;;;2.53;;
23159;SDS011;11748;50.844;4.396;2023-05-29T13:42:11;7.18;;;2.78;;
23159;SDS011;11748;50.844;4.396;2023-05-29T13:44:37;12.88;;;3.17;;
23159;SDS011;11748;50.844;4.396;2023-05-29T13:47:03;9.45;;;2.20;;
23159;SDS011;11748;50.844;4.396;2023-05-29T13:49:29;11.15;;;2.70;;
23159;SDS011;11748;50.844;4.396;2023-05-29T13:51:55;7.88;;;2.63;;
23159;SDS011;11748;50.844;4.396;2023-05-29T13:54:21;11.57;;;2.80;;
23159;SDS011;11748;50.844;4.396;2023-05-29T13:56:47;8.75;;;2.30;;
23159;SDS011;11748;50.844;4.396;2023-05-29T13:59:14;8.48;;;3.05;;
23159;SDS011;11748;50.844;4.396;2023-05-29T14:01:40;8.40;;;2.65;;
23159;SDS011;11748;50.844;4.396;2023-05-29T14:04:06;6.78;;;2.22;;
23159;SDS011;11748;50.844;4.396;2023-05-29T14:06:32;10.13;;;2.65;;
23159;SDS011;11748;50.844;4.396;2023-05-29T14:08:58;10.18;;;2.70;;
23159;SDS011;11748;50.844;4.396;2023-05-29T14:11:24;10.15;;;2.53;;
23159;SDS011;11748;50.844;4.396;2023-05-29T14:13:52;9.90;;;2.40;;
23159;SDS011;11748;50.844;4.396;2023-05-29T14:16:17;12.93;;;2.55;;
23159;SDS011;11748;50.844;4.396;2023-05-29T14:18:43;11.15;;;2.47;;
23159;SDS011;11748;50.844;4.396;2023-05-29T14:21:08;7.97;;;2.50;;
23159;SDS011;11748;50.844;4.396;2023-05-29T14:23:35;7.70;;;2.60;;
23159;SDS011;11748;50.844;4.396;2023-05-29T14:26:02;9.85;;;2.42;;
23159;SDS011;11748;50.844;4.396;2023-05-29T14:28:27;8.60;;;2.50;;
23159;SDS011;11748;50.844;4.396;2023-05-29T14:30:53;9.77;;;2.72;;
23159;SDS011;11748;50.844;4.396;2023-05-29T14:33:19;6.72;;;2.03;;
23159;SDS011;11748;50.844;4.396;2023-05-29T14:35:44;6.97;;;2.53;;
23159;SDS011;11748;50.844;4.396;2023-05-29T14:38:10;6.93;;;2.80;;
23159;SDS011;11748;50.844;4.396;2023-05-29T14:40:36;8.63;;;2.35;;
23159;SDS011;11748;50.844;4.396;2023-05-29T14:43:02;9.27;;;2.33;;
23159;SDS011;11748;50.844;4.396;2023-05-29T14:45:28;8.50;;;2.42;;
23159;SDS011;11748;50.844;4.396;2023-05-29T14:47:53;8.35;;;2.30;;
23159;SDS011;11748;50.844;4.396;2023-05-29T14:50:19;5.40;;;2.40;;
23159;SDS011;11748;50.844;4.396;2023-05-29T14:52:45;9.00;;;2.20;;
23159;SDS011;11748;50.844;4.396;2023-05-29T14:55:12;8.23;;;2.20;;
23159;SDS011;11748;50.844;4.396;2023-05-29T14:57:40;7.68;;;2.03;;
23159;SDS011;11748;50.844;4.396;2023-05-29T15:00:07;8.23;;;2.58;;
23159;SDS011;11748;50.844;4.396;2023-05-29T15:02:33;7.75;;;2.30;;
23159;SDS011;11748;50.844;4.396;2023-05-29T15:04:59;4.70;;;1.95;;
23159;SDS011;11748;50.844;4.396;2023-05-29T15:07:25;9.93;;;2.20;;
23159;SDS011;11748;50.844;4.396;2023-05-29T15:09:51;7.10;;;2.53;;
23159;SDS011;11748;50.844;4.396;2023-05-29T15:12:17;5.78;;;2.40;;
23159;SDS011;11748;50.844;4.396;2023-05-29T15:14:42;8.35;;;2.33;;